Time;durP1;ratioP1;P1;durP2;ratioP2;P2;SDS_P1;SDS_P2;PMS_P1;PMS_P2;Temp;Humidity;BMP_temperature;BMP_pressure;BME280_temperature;BME280_humidity;BME280_pressure;Samples;Min_cycle;Max_cycle;Signal;HPM_P1;HPM_P2
2023/09/18 00:01:39;;;;;;;16.17;11.82;;;;;;;18.36;56.31;94338.66;4989804;28;20049;-80
2023/09/18 00:04:05;;;;;;;13.93;10.15;;;;;;;18.21;56.64;94325.97;4994666;28;20077;-80
2023/09/18 00:06:31;;;;;;;14.55;11.10;;;;;;;18.45;56.43;94352.72;4991226;28;20033;-79
2023/09/18 00:08:56;;;;;;;15.38;10.10;;;;;;;18.42;56.60;94342.66;4993502;28;20041;-79
2023/09/18 00:11:21;;;;;;;11.35;10.15;;;;;;;18.40;56.32;94336.81;4993305;28;20080;-79
2023/09/18 00:13:47;;;;;;;14.52;11.38;;;;;;;18.40;56.57;94344.91;4994803;28;20037;-78
2023/09/18 00:16:12;;;;;;;15.30;10.52;;;;;;;18.22;57.32;94333.72;4993251;28;20046;-80
2023/09/18 00:18:38;;;;;;;13.57;11.25;;;;;;;18.22;57.16;94332.94;4995365;28;20711;-80
2023/09/18 00:21:04;;;;;;;15.00;11.00;;;;;;;18.15;57.60;94330.06;4978960;28;20467;-79
2023/09/18 00:23:29;;;;;;;15.25;12.50;;;;;;;18.26;58.23;94349.94;4995349;28;20041;-79
2023/09/18 00:25:55;;;;;;;15.18;11.77;;;;;;;18.28;58.20;94358.47;4994862;28;20515;-79
2023/09/18 00:28:20;;;;;;;14.85;11.82;;;;;;;18.15;58.22;94340.81;4994655;28;20034;-79
2023/09/18 00:30:50;;;;;;;15.15;11.90;;;;;;;18.18;58.26;94353.59;4995410;28;20828;-80
2023/09/18 00:33:16;;;;;;;16.13;12.43;;;;;;;18.09;57.41;94320.72;4994333;28;20565;-79
2023/09/18 00:35:48;;;;;;;16.02;11.98;;;;;;;18.21;58.11;94348.31;4994554;28;20678;-78
2023/09/18 00:38:14;;;;;;;15.18;12.77;;;;;;;18.17;58.13;94358.22;4994526;28;20045;-80
2023/09/18 00:40:40;;;;;;;17.30;12.35;;;;;;;18.10;58.23;94346.47;4991786;28;20038;-78
2023/09/18 00:43:05;;;;;;;14.05;12.30;;;;;;;18.16;57.86;94345.09;4993260;28;20124;-80
2023/09/18 00:45:31;;;;;;;13.60;11.35;;;;;;;18.20;57.61;94341.34;4995971;28;20030;-79
2023/09/18 00:47:56;;;;;;;16.60;12.45;;;;;;;18.28;57.98;94366.56;4976142;28;20039;-79
2023/09/18 00:50:22;;;;;;;17.17;12.77;;;;;;;18.23;58.41;94350.66;4990700;28;20038;-79
2023/09/18 00:52:49;;;;;;;13.60;11.48;;;;;;;18.29;58.23;94366.19;4994542;28;20125;-80
2023/09/18 00:55:14;;;;;;;15.48;11.93;;;;;;;18.30;58.38;94362.38;4993920;28;20122;-80
2023/09/18 00:57:42;;;;;;;16.77;11.77;;;;;;;18.29;58.69;94360.78;4992977;28;20038;-77
2023/09/18 01:00:08;;;;;;;15.52;12.23;;;;;;;18.29;58.71;94368.88;4989300;28;20041;-78
2023/09/18 01:02:34;;;;;;;14.30;12.40;;;;;;;18.27;58.93;94362.28;4976239;28;20084;-79
2023/09/18 01:05:00;;;;;;;15.18;13.48;;;;;;;18.38;58.97;94374.09;4995715;28;20038;-77
2023/09/18 01:07:25;;;;;;;19.15;13.57;;;;;;;18.30;59.37;94365.06;4992882;28;20083;-79
2023/09/18 01:09:52;;;;;;;16.00;11.93;;;;;;;18.48;59.16;94378.94;4974111;28;20046;-79
2023/09/18 01:12:43;;;;;;;17.45;13.07;;;;;;;18.29;59.18;94360.00;4978094;28;20148;-78
2023/09/18 01:15:17;;;;;;;17.45;13.43;;;;;;;18.42;59.55;94383.03;4969761;28;20457;-80
2023/09/18 01:17:43;;;;;;;16.57;12.73;;;;;;;18.42;59.31;94380.34;4966850;28;20035;-80
2023/09/18 01:20:10;;;;;;;15.35;11.98;;;;;;;18.46;59.17;94371.22;4986088;28;20275;-78
2023/09/18 01:22:35;;;;;;;14.73;12.88;;;;;;;18.30;59.44;94351.59;4975759;28;20104;-80
2023/09/18 01:25:02;;;;;;;14.75;12.15;;;;;;;18.47;58.99;94372.00;4991620;28;20746;-79
2023/09/18 01:27:27;;;;;;;15.15;12.77;;;;;;;18.36;59.22;94357.50;4997161;28;20052;-79
2023/09/18 01:29:53;;;;;;;16.85;12.57;;;;;;;18.49;59.17;94375.13;4997190;28;20405;-80
2023/09/18 01:32:21;;;;;;;23.00;13.82;;;;;;;18.53;59.31;94377.91;4982981;28;20418;-80
2023/09/18 01:34:48;;;;;;;16.92;12.93;;;;;;;18.44;58.71;94356.53;4996960;28;20054;-80
2023/09/18 01:37:16;;;;;;;17.88;14.48;;;;;;;18.55;58.65;94376.41;4995368;28;20520;-80
2023/09/18 01:39:42;;;;;;;20.95;16.48;;;;;;;18.55;58.62;94372.94;4999701;28;20430;-79
2023/09/18 01:42:10;;;;;;;16.83;14.48;;;;;;;18.38;58.58;94356.00;4998253;28;20033;-80
2023/09/18 01:44:39;;;;;;;20.00;16.23;;;;;;;18.46;58.51;94370.44;4998721;28;20037;-80
2023/09/18 01:47:07;;;;;;;21.60;16.83;;;;;;;18.48;58.30;94368.94;4995517;28;20034;-79
2023/09/18 01:49:37;;;;;;;26.45;19.20;;;;;;;18.42;58.30;94359.59;4997187;28;20033;-78
2023/09/18 01:52:04;;;;;;;20.55;17.00;;;;;;;18.48;58.03;94365.47;4990882;28;20602;-78
2023/09/18 01:54:30;;;;;;;23.90;19.45;;;;;;;18.45;58.18;94361.56;4983786;28;20552;-79
2023/09/18 01:56:56;;;;;;;23.42;18.85;;;;;;;18.36;57.66;94352.13;4997484;28;20041;-79
2023/09/18 01:59:22;;;;;;;23.05;18.65;;;;;;;18.39;57.95;94364.88;4978477;28;20034;-79
2023/09/18 02:01:47;;;;;;;20.63;18.08;;;;;;;18.44;57.83;94367.31;4993303;28;20054;-78
2023/09/18 02:04:13;;;;;;;22.02;17.98;;;;;;;18.32;57.69;94359.34;4995641;28;20555;-79
2023/09/18 02:06:39;;;;;;;21.80;19.42;;;;;;;18.30;57.81;94359.66;4997275;28;20215;-79
2023/09/18 02:09:05;;;;;;;28.13;18.85;;;;;;;18.33;57.60;94369.72;5000022;28;20026;-80
2023/09/18 02:11:30;;;;;;;22.88;18.70;;;;;;;18.35;57.61;94375.56;4998631;28;20044;-78
2023/09/18 02:13:56;;;;;;;25.17;19.05;;;;;;;18.22;57.60;94355.25;4995959;28;20062;-79
2023/09/18 02:16:24;;;;;;;22.27;18.67;;;;;;;18.35;58.54;94380.16;4996152;28;20587;-79
2023/09/18 02:18:50;;;;;;;21.95;18.33;;;;;;;18.29;58.54;94373.47;4995791;28;20164;-79
2023/09/18 02:21:23;;;;;;;28.80;17.92;;;;;;;18.30;58.73;94372.34;4997752;28;20026;-79
2023/09/18 02:23:51;;;;;;;20.38;17.88;;;;;;;18.33;58.40;94377.81;4974474;28;20437;-80
2023/09/18 02:26:17;;;;;;;21.08;16.48;;;;;;;18.38;58.39;94382.19;4964374;28;20042;-79
2023/09/18 02:28:42;;;;;;;24.70;18.55;;;;;;;18.30;58.77;94370.44;4988203;28;20030;-79
2023/09/18 02:31:08;;;;;;;21.58;16.92;;;;;;;18.37;58.69;94377.91;4994350;28;20691;-81
2023/09/18 02:33:33;;;;;;;19.17;15.65;;;;;;;18.37;58.73;94378.72;4997460;28;20058;-78
2023/09/18 02:35:59;;;;;;;19.73;17.30;;;;;;;18.30;58.58;94370.44;4997314;28;20153;-79
2023/09/18 02:38:26;;;;;;;20.98;18.27;;;;;;;18.29;58.68;94371.56;4982765;28;20038;-77
2023/09/18 02:40:53;;;;;;;18.85;16.83;;;;;;;18.11;58.56;94340.75;4993975;28;20485;-80
2023/09/18 02:43:18;;;;;;;18.17;16.27;;;;;;;18.30;58.30;94366.97;4993550;28;20418;-79
2023/09/18 02:45:45;;;;;;;21.70;17.42;;;;;;;18.14;58.46;94348.13;4977148;28;20029;-80
2023/09/18 02:48:11;;;;;;;22.90;18.30;;;;;;;18.22;58.66;94365.25;4979696;28;20636;-79
2023/09/18 02:50:36;;;;;;;20.25;16.63;;;;;;;18.31;58.26;94376.63;4995670;28;20034;-80
2023/09/18 02:53:03;;;;;;;21.77;17.83;;;;;;;18.27;58.15;94378.44;4994547;28;20030;-79
2023/09/18 02:55:28;;;;;;;22.52;17.73;;;;;;;18.26;57.87;94379.56;4994970;28;20030;-77
2023/09/18 02:57:54;;;;;;;20.25;17.88;;;;;;;18.32;58.15;94380.88;4993847;28;20045;-77
2023/09/18 03:00:19;;;;;;;22.80;17.63;;;;;;;18.35;58.23;94382.88;4992825;28;20038;-79
2023/09/18 03:02:45;;;;;;;20.85;18.35;;;;;;;18.20;58.09;94354.03;4996900;28;20056;-80
2023/09/18 03:05:10;;;;;;;19.98;17.58;;;;;;;18.38;58.07;94385.63;4994487;28;20172;-79
2023/09/18 03:07:37;;;;;;;22.50;17.70;;;;;;;18.29;57.78;94370.78;4997142;28;20034;-80
2023/09/18 03:10:02;;;;;;;21.23;17.20;;;;;;;18.41;57.96;94389.56;4994078;28;20124;-80
2023/09/18 03:12:28;;;;;;;21.10;18.02;;;;;;;18.29;57.75;94370.78;4980699;28;20027;-79
2023/09/18 03:14:53;;;;;;;18.83;16.90;;;;;;;18.30;57.98;94373.13;4979684;28;20130;-79
2023/09/18 03:17:20;;;;;;;19.40;16.88;;;;;;;18.32;57.88;94375.50;4999233;28;20042;-79
2023/09/18 03:19:50;;;;;;;22.80;17.42;;;;;;;18.23;57.65;94358.72;4994611;28;20030;-78
2023/09/18 03:22:16;;;;;;;19.63;16.17;;;;;;;18.35;57.33;94378.25;4995126;28;20157;-79
2023/09/18 03:24:41;;;;;;;19.23;17.20;;;;;;;18.32;57.33;94378.19;4995453;28;20026;-79
2023/09/18 03:27:06;;;;;;;21.25;17.52;;;;;;;18.36;56.87;94373.66;4995260;28;20036;-80
2023/09/18 03:29:32;;;;;;;19.10;16.23;;;;;;;18.28;56.79;94363.84;4979220;28;21326;-79
2023/09/18 03:31:58;;;;;;;21.30;17.30;;;;;;;18.20;57.09;94359.41;4991957;28;20053;-79
2023/09/18 03:34:27;;;;;;;19.90;16.58;;;;;;;18.24;57.17;94368.34;4977467;28;20893;-79
2023/09/18 03:36:53;;;;;;;21.02;16.55;;;;;;;18.32;56.88;94365.50;4978113;28;20060;-80
2023/09/18 03:39:18;;;;;;;20.90;16.60;;;;;;;18.33;57.08;94363.59;4980549;28;20460;-80
2023/09/18 03:41:44;;;;;;;22.77;18.15;;;;;;;18.22;57.86;94366.03;4993529;28;20030;-79
2023/09/18 03:44:10;;;;;;;19.35;15.90;;;;;;;18.21;57.68;94360.97;4997632;28;20045;-79
2023/09/18 03:46:36;;;;;;;18.85;16.85;;;;;;;18.16;57.60;94358.53;4995246;28;20040;-79
2023/09/18 03:49:02;;;;;;;21.20;16.50;;;;;;;18.20;57.26;94351.34;4994503;28;20045;-79
2023/09/18 03:51:29;;;;;;;20.08;17.42;;;;;;;18.18;57.33;94359.78;4992273;28;20100;-79
2023/09/18 03:53:55;;;;;;;21.73;16.95;;;;;;;18.10;57.04;94335.69;4996552;28;20061;-79
2023/09/18 03:56:20;;;;;;;20.65;17.48;;;;;;;18.20;57.12;94345.94;4992114;28;20276;-80
2023/09/18 03:58:49;;;;;;;19.63;16.70;;;;;;;18.21;57.56;94359.06;4995500;28;20643;-79
2023/09/18 04:01:15;;;;;;;23.77;16.77;;;;;;;17.96;58.20;94331.53;4996644;28;20076;-79
2023/09/18 04:03:43;;;;;;;22.13;17.30;;;;;;;18.18;58.49;94354.41;4995517;28;21443;-77
2023/09/18 04:06:09;;;;;;;22.52;17.52;;;;;;;18.02;58.05;94340.94;4994097;28;20463;-77
2023/09/18 04:08:35;;;;;;;21.70;18.17;;;;;;;17.92;58.32;94344.09;4968644;28;20088;-80
2023/09/18 04:11:01;;;;;;;22.73;17.67;;;;;;;17.87;57.87;94335.50;4994114;28;21125;-79
2023/09/18 04:13:26;;;;;;;23.42;17.00;;;;;;;17.99;57.93;94357.75;4994508;28;20038;-78
2023/09/18 04:15:56;;;;;;;24.63;17.88;;;;;;;17.80;58.06;94338.78;4994674;28;20026;-79
2023/09/18 04:18:22;;;;;;;21.35;17.17;;;;;;;17.97;58.28;94359.25;4993091;28;20157;-79
2023/09/18 04:20:51;;;;;;;22.08;17.23;;;;;;;18.03;58.07;94369.41;4992716;28;20038;-77
2023/09/18 04:23:19;;;;;;;22.77;17.65;;;;;;;17.91;58.58;94355.19;4994800;28;20044;-78
2023/09/18 04:25:48;;;;;;;20.48;16.90;;;;;;;17.89;58.90;94366.31;4976962;28;20083;-79
2023/09/18 04:28:18;;;;;;;20.48;16.95;;;;;;;17.92;59.18;94381.78;4994432;28;20651;-79
2023/09/18 04:30:44;;;;;;;21.10;17.20;;;;;;;17.85;58.92;94373.50;4992410;28;20022;-79
2023/09/18 04:33:10;;;;;;;21.02;18.02;;;;;;;17.84;58.97;94369.28;4996117;28;20084;-78
2023/09/18 04:35:36;;;;;;;24.60;17.35;;;;;;;17.89;59.17;94373.63;4992848;28;20348;-80
2023/09/18 04:38:02;;;;;;;23.20;17.58;;;;;;;17.74;59.88;94364.41;4972293;28;20034;-78
2023/09/18 04:40:31;;;;;;;22.05;17.27;;;;;;;17.81;60.57;94369.94;4982279;28;20045;-79
2023/09/18 04:42:57;;;;;;;23.08;18.98;;;;;;;17.89;60.78;94374.38;4996835;28;20042;-78
2023/09/18 04:45:23;;;;;;;24.58;19.13;;;;;;;17.87;61.28;94355.13;4973124;28;20136;-79
2023/09/18 04:47:48;;;;;;;24.33;18.05;;;;;;;18.09;61.07;94382.63;4996998;28;20038;-78
2023/09/18 04:50:13;;;;;;;21.05;16.83;;;;;;;17.94;60.90;94352.63;4992967;28;20041;-79
2023/09/18 04:52:40;;;;;;;24.02;19.13;;;;;;;18.04;60.79;94359.41;4991774;28;20045;-79
2023/09/18 04:55:06;;;;;;;21.92;18.63;;;;;;;18.16;60.70;94361.25;4979281;28;20030;-79
2023/09/18 04:57:31;;;;;;;26.98;18.35;;;;;;;18.32;60.78;94381.66;4993867;28;20041;-80
2023/09/18 04:59:57;;;;;;;23.40;18.50;;;;;;;18.24;60.80;94365.66;4992842;28;20041;-79
2023/09/18 05:02:24;;;;;;;21.60;18.23;;;;;;;18.36;59.92;94369.06;4994947;28;20095;-78
2023/09/18 05:04:50;;;;;;;27.08;17.60;;;;;;;18.42;59.80;94381.13;4992507;28;20057;-78
2023/09/18 05:07:16;;;;;;;24.38;18.83;;;;;;;18.31;59.43;94355.06;4993757;28;20645;-79
2023/09/18 05:09:41;;;;;;;25.00;17.50;;;;;;;18.45;59.94;94374.25;4988713;28;20029;-78
2023/09/18 05:12:13;;;;;;;29.02;20.85;;;;;;;18.39;59.47;94357.56;4994258;28;20037;-78
2023/09/18 05:14:40;;;;;;;23.73;17.65;;;;;;;18.48;59.65;94365.47;4990478;28;20131;-78
2023/09/18 05:17:05;;;;;;;23.13;17.92;;;;;;;18.51;59.33;94370.19;4991176;28;20386;-79
2023/09/18 05:19:30;;;;;;;25.92;18.77;;;;;;;18.48;59.55;94362.78;4974218;28;20034;-79
2023/09/18 05:21:56;;;;;;;23.63;18.70;;;;;;;18.66;59.45;94385.53;4969436;28;20091;-78
2023/09/18 05:24:26;;;;;;;20.70;18.58;;;;;;;18.68;59.59;94393.25;4988399;28;20573;-78
2023/09/18 05:26:52;;;;;;;25.08;18.27;;;;;;;18.38;60.05;94363.34;4994493;28;20042;-77
2023/09/18 05:29:18;;;;;;;23.77;18.90;;;;;;;18.63;59.95;94397.00;4962395;28;20168;-79
2023/09/18 05:31:43;;;;;;;19.45;16.48;;;;;;;18.59;60.47;94388.06;4966133;28;20130;-80
2023/09/18 05:34:09;;;;;;;21.67;17.88;;;;;;;18.60;60.39;94384.25;4991760;28;20293;-79
2023/09/18 05:36:35;;;;;;;21.70;17.45;;;;;;;18.65;60.11;94386.66;4993456;28;20030;-77
2023/09/18 05:39:00;;;;;;;21.38;17.85;;;;;;;18.82;59.73;94397.09;4995871;28;20037;-78
2023/09/18 05:41:28;;;;;;;24.98;19.20;;;;;;;18.64;59.64;94363.53;4991849;28;20406;-78
2023/09/18 05:43:54;;;;;;;22.15;18.77;;;;;;;18.66;59.92;94374.75;4996537;28;20191;-79
2023/09/18 05:46:19;;;;;;;23.25;19.05;;;;;;;18.85;59.83;94395.63;5002861;28;20120;-79
2023/09/18 05:48:45;;;;;;;23.35;18.60;;;;;;;18.80;59.44;94402.06;4983834;28;20033;-77
2023/09/18 05:51:10;;;;;;;26.98;18.48;;;;;;;18.60;59.36;94362.69;5001839;28;20026;-79
2023/09/18 05:53:37;;;;;;;31.80;18.52;;;;;;;18.76;59.18;94395.81;4976177;28;20422;-78
2023/09/18 05:56:05;;;;;;;24.60;17.38;;;;;;;18.73;59.93;94407.28;4994569;28;20045;-79
2023/09/18 05:58:35;;;;;;;26.02;18.85;;;;;;;18.77;59.67;94402.75;4995092;28;20499;-78
2023/09/18 06:01:01;;;;;;;20.17;17.75;;;;;;;18.74;59.26;94392.69;4992086;28;20422;-77
2023/09/18 06:03:27;;;;;;;25.48;19.45;;;;;;;18.69;59.58;94387.53;4993173;28;20045;-79
2023/09/18 06:05:52;;;;;;;22.65;18.65;;;;;;;18.83;59.45;94401.34;4993090;28;20079;-79
2023/09/18 06:08:18;;;;;;;20.98;18.67;;;;;;;18.87;59.55;94407.59;4993359;28;20491;-79
2023/09/18 06:10:44;;;;;;;25.40;19.27;;;;;;;18.77;59.32;94386.56;4975464;28;20038;-78
2023/09/18 06:13:10;;;;;;;22.35;17.65;;;;;;;18.90;58.31;94406.13;4992994;28;20049;-77
2023/09/18 06:15:36;;;;;;;24.30;17.88;;;;;;;18.85;58.40;94372.16;4995156;28;20022;-78
2023/09/18 06:18:03;;;;;;;24.65;18.52;;;;;;;18.88;58.61;94376.81;4994569;28;21101;-77
2023/09/18 06:20:29;;;;;;;24.23;18.55;;;;;;;18.95;58.33;94403.16;4996967;28;20392;-76
2023/09/18 06:22:54;;;;;;;26.20;19.30;;;;;;;18.94;57.75;94380.03;4997582;28;20034;-78
2023/09/18 06:25:20;;;;;;;21.00;18.10;;;;;;;18.86;57.69;94373.72;4997118;28;20613;-79
2023/09/18 06:27:46;;;;;;;28.55;18.25;;;;;;;18.99;58.64;94393.22;4993153;28;20037;-78
2023/09/18 06:30:11;;;;;;;24.70;19.83;;;;;;;19.05;58.60;94391.03;4998169;28;20033;-77
2023/09/18 06:32:37;;;;;;;22.90;18.45;;;;;;;19.03;58.62;94387.91;4990365;28;20897;-79
2023/09/18 06:35:03;;;;;;;24.13;18.45;;;;;;;19.17;58.01;94409.78;4988072;28;20497;-78
2023/09/18 06:37:28;;;;;;;25.17;18.48;;;;;;;19.22;57.46;94404.91;4968956;28;20085;-75
2023/09/18 06:39:54;;;;;;;25.90;18.75;;;;;;;19.28;57.84;94410.78;4971657;28;20562;-78
2023/09/18 06:42:20;;;;;;;24.63;18.95;;;;;;;19.30;57.85;94409.31;4989303;28;20025;-78
2023/09/18 06:44:45;;;;;;;25.40;19.50;;;;;;;19.33;57.51;94397.03;4988562;28;20033;-78
2023/09/18 06:47:11;;;;;;;28.60;20.00;;;;;;;19.36;58.51;94406.34;4971779;28;20084;-79
2023/09/18 06:49:36;;;;;;;26.50;19.63;;;;;;;19.43;58.18;94401.09;4993747;28;21213;-79
2023/09/18 06:52:02;;;;;;;27.83;19.98;;;;;;;19.39;57.46;94390.22;4997506;28;20045;-78
2023/09/18 06:54:28;;;;;;;28.40;19.27;;;;;;;19.43;58.48;94401.88;4997073;28;20046;-77
2023/09/18 06:56:54;;;;;;;26.42;19.35;;;;;;;19.48;58.44;94388.13;4996802;28;20548;-78
2023/09/18 06:59:19;;;;;;;27.40;20.08;;;;;;;19.25;59.12;94368.38;4993462;28;20034;-79
2023/09/18 07:01:45;;;;;;;29.67;19.50;;;;;;;19.41;59.00;94369.06;4972345;28;20124;-78
2023/09/18 07:04:11;;;;;;;27.15;18.30;;;;;;;19.69;58.15;94396.66;4967765;28;20122;-78
2023/09/18 07:06:37;;;;;;;22.25;18.73;;;;;;;19.54;58.54;94400.22;4973358;28;20803;-76
2023/09/18 07:09:05;;;;;;;28.33;20.25;;;;;;;19.68;58.57;94403.19;4995600;28;20025;-78
2023/09/18 07:11:30;;;;;;;23.60;19.33;;;;;;;19.83;58.02;94406.94;4993434;28;20026;-78
2023/09/18 07:13:55;;;;;;;23.17;19.27;;;;;;;19.88;57.72;94395.06;4995345;28;20032;-77
2023/09/18 07:16:21;;;;;;;24.50;19.65;;;;;;;;;;4996221;28;20123;-76
2023/09/18 07:18:46;;;;;;;23.15;17.95;;;;;;;19.93;57.44;94389.38;4977178;28;20557;-79
2023/09/18 07:21:11;;;;;;;22.40;16.80;;;;;;;19.97;57.45;94403.72;4997245;28;20038;-78
2023/09/18 07:23:37;;;;;;;21.92;16.73;;;;;;;19.75;57.81;94384.41;4992337;28;20085;-77
2023/09/18 07:26:03;;;;;;;26.13;18.63;;;;;;;19.72;57.79;94387.03;4976151;28;20855;-81
2023/09/18 07:28:28;;;;;;;23.27;17.65;;;;;;;19.92;57.58;94396.69;4993290;28;20026;-76
2023/09/18 07:30:54;;;;;;;22.65;17.90;;;;;;;19.96;56.28;94399.44;4991042;28;20033;-79
2023/09/18 07:33:19;;;;;;;24.30;16.23;;;;;;;19.73;56.15;94377.81;4993959;28;20474;-78
2023/09/18 07:35:51;;;;;;;22.23;17.38;;;;;;;19.75;57.61;94411.41;4995411;28;20112;-80
2023/09/18 07:38:18;;;;;;;20.52;16.13;;;;;;;19.91;57.92;94375.44;4994771;28;20354;-77
2023/09/18 07:40:45;;;;;;;22.73;17.70;;;;;;;19.97;56.09;94398.31;4994852;28;20813;-79
2023/09/18 07:43:11;;;;;;;20.67;16.13;;;;;;;19.77;56.75;94388.69;4996548;28;20802;-78
2023/09/18 07:45:39;;;;;;;20.08;16.98;;;;;;;20.03;56.82;94407.69;4993141;28;20030;-78
2023/09/18 07:48:06;;;;;;;21.27;15.98;;;;;;;20.01;56.46;94401.84;4991640;28;20026;-77
2023/09/18 07:50:33;;;;;;;24.30;17.70;;;;;;;20.04;56.27;94382.25;4994739;28;20516;-78
2023/09/18 07:52:58;;;;;;;21.77;17.25;;;;;;;20.31;56.21;94383.91;4992692;28;20049;-78
2023/09/18 07:55:24;;;;;;;23.35;15.77;;;;;;;20.22;55.09;94388.75;4969263;28;20510;-81
2023/09/18 07:57:51;;;;;;;24.48;16.80;;;;;;;20.05;55.55;94406.16;4977410;28;20065;-78
2023/09/18 08:00:17;;;;;;;26.30;17.52;;;;;;;19.90;56.25;94398.16;4989249;28;20522;-77
2023/09/18 08:02:43;;;;;;;20.10;16.17;;;;;;;20.23;55.72;94379.53;4977143;28;20057;-78
2023/09/18 08:05:08;;;;;;;24.17;16.85;;;;;;;20.42;54.81;94403.78;4996389;28;20056;-79
2023/09/18 08:07:35;;;;;;;19.15;16.20;;;;;;;20.14;55.25;94393.22;4991801;28;20041;-79
2023/09/18 08:10:04;;;;;;;20.35;15.40;;;;;;;20.28;55.13;94398.13;4990753;28;20053;-79
2023/09/18 08:12:30;;;;;;;25.58;15.65;;;;;;;20.45;55.04;94388.75;4994345;28;20021;-77
2023/09/18 08:14:58;;;;;;;18.15;15.43;;;;;;;20.69;54.07;94392.97;4988507;28;20034;-77
2023/09/18 08:17:24;;;;;;;35.80;16.15;;;;;;;20.59;53.31;94367.34;4991851;28;20045;-78
2023/09/18 08:19:52;;;;;;;22.20;16.83;;;;;;;20.70;53.55;94387.22;4993200;28;20049;-78
2023/09/18 08:22:18;;;;;;;21.02;14.73;;;;;;;20.65;53.22;94367.81;4973361;28;20042;-78
2023/09/18 08:24:45;;;;;;;19.58;16.35;;;;;;;20.65;53.23;94389.44;4974957;28;20034;-79
2023/09/18 08:27:11;;;;;;;22.08;16.48;;;;;;;20.42;53.18;94386.78;4996477;28;20034;-78
2023/09/18 08:29:37;;;;;;;21.42;17.10;;;;;;;20.59;53.62;94383.56;4989666;28;20038;-78
2023/09/18 08:32:02;;;;;;;20.70;14.50;;;;;;;20.62;53.27;94371.25;4992927;28;20042;-78
2023/09/18 08:34:28;;;;;;;19.88;15.38;;;;;;;20.79;52.73;94384.25;4970934;28;20054;-77
2023/09/18 08:36:54;;;;;;;22.02;15.18;;;;;;;20.73;51.85;94361.41;4977042;28;20048;-80
2023/09/18 08:39:20;;;;;;;16.63;13.27;;;;;;;20.99;52.75;94374.94;4992158;28;20063;-78
2023/09/18 08:41:50;;;;;;;19.80;15.27;;;;;;;20.98;51.72;94357.13;4957690;28;20042;-79
2023/09/18 08:44:17;;;;;;;17.75;13.43;;;;;;;20.88;51.30;94350.44;4988048;28;20112;-78
2023/09/18 08:46:43;;;;;;;16.88;13.27;;;;;;;21.05;50.57;94359.94;4973077;28;20034;-78
2023/09/18 08:49:10;;;;;;;17.85;13.77;;;;;;;21.06;50.64;94345.28;4993257;28;20145;-79
2023/09/18 08:51:36;;;;;;;20.55;15.45;;;;;;;21.03;50.80;94337.91;4990648;28;20411;-79
2023/09/18 08:54:04;;;;;;;19.42;14.82;;;;;;;21.06;50.68;94358.81;4992495;28;20379;-79
2023/09/18 08:56:31;;;;;;;17.02;15.20;;;;;;;20.85;51.21;94348.44;4990805;28;20074;-80
2023/09/18 08:58:57;;;;;;;17.98;13.15;;;;;;;20.83;50.98;94331.03;4982931;28;20042;-79
2023/09/18 09:01:22;;;;;;;23.45;15.18;;;;;;;21.09;51.00;94354.59;4973655;28;20685;-78
2023/09/18 09:03:48;;;;;;;20.70;15.13;;;;;;;21.01;50.98;94348.31;4976267;28;20028;-81
2023/09/18 09:06:14;;;;;;;23.05;14.55;;;;;;;21.03;50.61;94327.84;4974797;28;20437;-79
2023/09/18 09:08:39;;;;;;;15.82;13.20;;;;;;;20.92;51.13;94350.50;4993955;28;20156;-79
2023/09/18 09:11:05;;;;;;;15.77;12.60;;;;;;;21.23;50.34;94342.03;4992711;28;20927;-79
2023/09/18 09:13:31;;;;;;;21.63;13.93;;;;;;;21.31;49.65;94342.91;4992071;28;20112;-79
2023/09/18 09:15:58;;;;;;;17.42;12.48;;;;;;;21.23;49.48;94350.13;4995355;28;20030;-80
2023/09/18 09:18:28;;;;;;;17.40;12.63;;;;;;;21.20;49.45;94331.16;4994038;28;20036;-78
2023/09/18 09:21:00;;;;;;;17.15;11.15;;;;;;;20.97;49.58;94342.09;4992522;28;20168;-80
2023/09/18 09:23:28;;;;;;;17.25;12.43;;;;;;;21.01;49.38;94346.38;4973662;28;20510;-80
2023/09/18 09:26:12;;;;;;;14.98;12.73;;;;;;;20.92;49.61;94339.69;4985237;28;20093;-80
2023/09/18 09:28:37;;;;;;;17.10;12.38;;;;;;;21.05;49.94;94338.31;4993115;28;20072;-80
2023/09/18 09:31:03;;;;;;;15.88;10.55;;;;;;;21.02;48.67;94329.00;4990989;28;20835;-80
2023/09/18 09:33:32;;;;;;;15.43;10.18;;;;;;;21.18;48.09;94341.56;4994006;28;20037;-78
2023/09/18 09:35:58;;;;;;;13.85;10.00;;;;;;;21.31;47.56;94340.97;5001323;28;20037;-79
2023/09/18 09:38:32;;;;;;;15.38;9.43;;;;;;;21.31;46.87;94334.78;5000559;28;20042;-78
2023/09/18 09:40:59;;;;;;;14.82;10.27;;;;;;;21.14;47.00;94333.41;4995083;28;20034;-80
2023/09/18 09:43:26;;;;;;;13.10;9.25;;;;;;;21.22;47.54;94331.56;4994387;28;20072;-79
2023/09/18 09:45:58;;;;;;;11.13;8.50;;;;;;;21.35;46.98;94325.56;4994607;28;20103;-79
2023/09/18 09:48:25;;;;;;;15.13;9.20;;;;;;;21.74;47.37;94336.06;4997058;28;20057;-77
2023/09/18 09:50:51;;;;;;;12.82;9.15;;;;;;;21.76;46.18;94334.53;4979907;28;20495;-79
2023/09/18 09:53:17;;;;;;;11.70;8.93;;;;;;;21.71;45.41;94305.09;4992620;28;20112;-79
2023/09/18 09:55:43;;;;;;;10.20;8.10;;;;;;;21.75;44.76;94326.81;4995748;28;20041;-79
2023/09/18 09:58:10;;;;;;;10.18;7.75;;;;;;;21.57;44.56;94304.94;4998024;28;20034;-79
2023/09/18 10:00:45;;;;;;;10.48;8.10;;;;;;;21.79;44.44;94308.66;4990772;28;20024;-79
2023/09/18 10:03:12;;;;;;;8.68;7.78;;;;;;;21.36;45.09;94305.44;4983921;28;20084;-79
2023/09/18 10:05:40;;;;;;;12.13;9.45;;;;;;;21.41;46.14;94320.59;4986923;28;20041;-79
2023/09/18 10:08:27;;;;;;;12.40;9.57;;;;;;;21.62;45.37;94309.25;4986075;28;20080;-79
2023/09/18 10:10:55;;;;;;;12.05;9.40;;;;;;;21.84;45.72;94316.44;4987868;28;20820;-78
2023/09/18 10:13:40;;;;;;;14.60;10.65;;;;;;;21.69;45.49;94317.47;4987884;28;20104;-79
2023/09/18 10:16:07;;;;;;;9.70;8.35;;;;;;;21.24;45.33;94296.81;4985178;28;20117;-79
2023/09/18 10:19:00;;;;;;;12.18;8.88;;;;;;;21.67;45.09;94317.03;4988489;28;20116;-79
2023/09/18 10:21:48;;;;;;;8.13;7.30;;;;;;;21.73;44.42;94302.03;4985561;28;20574;-78
2023/09/18 10:24:24;;;;;;;10.45;8.52;;;;;;;21.76;45.55;94307.47;4982435;28;20921;-79
2023/09/18 10:26:58;;;;;;;13.98;9.07;;;;;;;21.53;45.31;94309.53;4966143;28;21052;-79
2023/09/18 10:29:24;;;;;;;8.95;8.00;;;;;;;21.55;45.22;94298.38;4967375;28;20124;-79
2023/09/18 10:31:52;;;;;;;9.48;8.48;;;;;;;21.78;44.32;94302.47;4985386;28;20037;-79
2023/09/18 10:34:18;;;;;;;11.98;8.18;;;;;;;22.01;45.22;94283.31;4979532;28;20033;-79
2023/09/18 10:36:47;;;;;;;10.90;8.07;;;;;;;22.00;44.32;94273.63;4990928;28;20052;-80
2023/09/18 10:39:13;;;;;;;12.38;8.23;;;;;;;22.00;44.44;94276.34;4995647;28;20034;-79
2023/09/18 10:41:39;;;;;;;10.68;8.38;;;;;;;22.20;43.67;94282.31;4993605;28;20045;-80
2023/09/18 10:44:06;;;;;;;10.75;8.38;;;;;;;22.40;43.67;94275.53;4993759;28;20437;-79
2023/09/18 10:46:32;;;;;;;14.50;9.52;;;;;;;22.41;43.67;94274.38;4994631;28;20402;-79
2023/09/18 10:49:00;;;;;;;11.05;9.90;;;;;;;22.17;44.08;94259.47;4995718;28;20088;-78
2023/09/18 10:51:25;;;;;;;10.15;8.48;;;;;;;22.32;44.46;94268.50;4993054;28;20026;-78
2023/09/18 10:53:52;;;;;;;13.88;8.65;;;;;;;22.27;43.61;94261.50;4995938;28;20096;-76
2023/09/18 10:56:20;;;;;;;13.88;8.05;;;;;;;22.00;43.15;94230.31;4997315;28;20053;-79
2023/09/18 10:58:45;;;;;;;9.48;8.15;;;;;;;22.36;43.90;94263.88;4980718;28;20298;-79
2023/09/18 11:01:12;;;;;;;12.20;7.95;;;;;;;22.50;44.07;94241.53;4994739;28;20119;-79
2023/09/18 11:03:38;;;;;;;9.25;8.25;;;;;;;22.40;42.68;94248.44;4994986;28;20054;-79
2023/09/18 11:06:11;;;;;;;8.52;7.65;;;;;;;22.46;43.15;94263.19;4996545;28;20036;-79
2023/09/18 11:08:48;;;;;;;9.18;8.18;;;;;;;22.69;42.90;94262.94;4991908;28;20041;-79
2023/09/18 11:11:20;;;;;;;10.23;8.05;;;;;;;22.89;44.31;94250.66;4975331;28;20124;-79
2023/09/18 11:13:47;;;;;;;8.02;7.22;;;;;;;22.41;42.53;94249.22;4984394;28;20038;-79
2023/09/18 11:16:27;;;;;;;7.72;6.93;;;;;;;22.35;43.39;94256.13;4991813;28;20062;-79
2023/09/18 11:18:53;;;;;;;7.50;6.15;;;;;;;22.32;42.36;94251.47;4992900;28;20038;-81